Terminal Aerodrome Forecast
Issued by NWS Atlanta, GA

Home | Current Version | Previous Version | Text Only | Print | Product List | Glossary On
Versions: 1 2 3 4 5 6 7 8 9 10 11 12 13 14 15 16 17 18 19 20 21 22
000
FTUS42 KFFC 170900 AAA
TAFMCN
TAF AMD
KMCN 170936Z 1710/1806 30003KT 6SM BR FEW040
     FM171600 33008KT P6SM SCT045
     FM180100 32003KT P6SM SKC=

USA.gov is the U.S. government's official web portal to all federal, state and local government web resources and services.